createdAt,value
2017-10-05T00:00:48.922Z,79.70
2017-10-05T00:03:18.736Z,79.70
2017-10-05T00:05:47.899Z,81.90
2017-10-05T00:08:17.062Z,81.90
2017-10-05T00:10:45.571Z,83.00
2017-10-05T00:13:13.607Z,83.50
2017-10-05T00:15:41.278Z,84.30
2017-10-05T00:18:09.650Z,84.00
2017-10-05T00:20:37.390Z,84.00
2017-10-05T00:23:04.998Z,84.30
2017-10-05T00:25:32.666Z,84.80
2017-10-05T00:28:00.318Z,85.40
2017-10-05T00:30:28.825Z,83.00
2017-10-05T00:32:56.919Z,82.90
2017-10-05T00:35:25.614Z,83.00
2017-10-05T00:37:53.570Z,82.20
2017-10-05T00:40:21.825Z,82.30
2017-10-05T00:45:23.455Z,83.30
2017-10-05T00:47:52.350Z,82.10
2017-10-05T00:50:21.876Z,83.10
2017-10-05T00:52:51.210Z,83.10
2017-10-05T00:55:21.123Z,82.70
2017-10-05T00:57:51.354Z,81.60
2017-10-05T01:00:21.308Z,82.40
2017-10-05T01:02:51.564Z,82.40
2017-10-05T01:05:21.847Z,82.40
2017-10-05T01:07:50.584Z,82.60
2017-10-05T01:10:20.568Z,82.90
2017-10-05T01:12:50.730Z,83.00
2017-10-05T01:15:20.609Z,84.60
2017-10-05T01:17:50.803Z,86.00
2017-10-05T01:20:20.719Z,85.20
2017-10-05T01:22:49.785Z,84.10
2017-10-05T01:25:18.936Z,83.30
2017-10-05T01:27:47.909Z,82.90
2017-10-05T01:30:17.670Z,83.20
2017-10-05T01:32:46.646Z,82.90
2017-10-05T01:35:14.360Z,83.10
2017-10-05T01:37:42.026Z,83.10
2017-10-05T01:40:09.622Z,84.00
2017-10-05T01:42:38.047Z,83.30
2017-10-05T01:45:05.654Z,83.10
2017-10-05T01:47:33.318Z,82.70
2017-10-05T01:50:00.910Z,83.20
2017-10-05T01:52:28.864Z,81.90
2017-10-05T01:54:56.664Z,81.60
2017-10-05T01:57:24.612Z,83.10
2017-10-05T01:59:52.756Z,84.00
2017-10-05T02:02:22.288Z,83.60
2017-10-05T02:04:51.091Z,83.90
2017-10-05T02:07:19.948Z,85.90
2017-10-05T02:09:49.027Z,85.90
2017-10-05T02:12:16.855Z,84.90
2017-10-05T02:14:44.537Z,85.00
2017-10-05T02:17:13.318Z,84.20
2017-10-05T02:19:42.304Z,85.90
2017-10-05T02:22:09.936Z,85.90
2017-10-05T02:24:37.524Z,86.10
2017-10-05T02:27:05.972Z,87.20
2017-10-05T02:29:34.335Z,86.80
2017-10-05T02:32:02.753Z,85.60
2017-10-05T02:34:30.351Z,85.60
2017-10-05T02:36:58.825Z,87.40
2017-10-05T02:39:27.370Z,88.10
2017-10-05T02:41:55.566Z,87.90
2017-10-05T02:44:23.388Z,88.00
2017-10-05T02:46:51.356Z,89.50
2017-10-05T02:49:19.671Z,89.80
2017-10-05T02:51:50.466Z,91.30
2017-10-05T02:54:21.036Z,91.20
2017-10-05T02:56:50.671Z,91.50
2017-10-05T02:59:19.933Z,91.40
2017-10-05T03:01:49.216Z,90.80
2017-10-05T03:04:19.622Z,85.80
2017-10-05T03:06:48.586Z,86.60
2017-10-05T03:09:18.319Z,87.00
2017-10-05T03:11:48.974Z,84.90
2017-10-05T03:14:20.729Z,85.80
2017-10-05T03:16:50.416Z,88.20
2017-10-05T03:19:21.272Z,88.10
2017-10-05T03:21:50.307Z,90.50
2017-10-05T03:24:20.057Z,90.10
2017-10-05T03:26:49.281Z,90.90
2017-10-05T03:29:20.450Z,91.70
2017-10-05T03:31:49.967Z,91.60
2017-10-05T03:34:20.207Z,91.70
2017-10-05T03:36:49.296Z,91.80
2017-10-05T03:39:19.091Z,91.70
2017-10-05T03:41:49.577Z,91.70
2017-10-05T03:44:21.078Z,91.50
2017-10-05T03:46:50.823Z,91.50
2017-10-05T03:49:21.771Z,91.50
2017-10-05T03:51:51.038Z,91.40
2017-10-05T03:54:22.317Z,92.20
2017-10-05T03:56:50.455Z,91.80
2017-10-05T03:59:19.428Z,91.60
2017-10-05T04:01:48.202Z,91.20
2017-10-05T04:04:16.889Z,91.00
2017-10-05T04:06:46.123Z,91.00
2017-10-05T04:09:13.822Z,90.90
2017-10-05T04:11:41.422Z,91.30
2017-10-05T04:14:10.775Z,91.10
2017-10-05T04:16:39.171Z,91.10
2017-10-05T04:19:06.857Z,91.10
2017-10-05T04:21:34.496Z,90.60
2017-10-05T04:24:02.152Z,90.80
2017-10-05T04:26:33.372Z,91.20
2017-10-05T04:29:01.092Z,91.00
2017-10-05T04:31:28.913Z,91.50
2017-10-05T04:33:57.138Z,91.10
2017-10-05T04:36:25.141Z,89.50
2017-10-05T04:38:53.683Z,88.90
2017-10-05T04:41:23.700Z,88.70
2017-10-05T04:43:53.107Z,86.00
2017-10-05T04:46:21.719Z,83.90
2017-10-05T04:48:50.236Z,83.20
2017-10-05T04:51:19.275Z,86.10
2017-10-05T04:53:47.696Z,80.50
2017-10-05T04:56:15.520Z,78.20
2017-10-05T04:58:44.772Z,75.30
2017-10-05T05:01:12.972Z,75.30
2017-10-05T05:03:41.410Z,71.20
2017-10-05T05:06:09.022Z,71.20
2017-10-05T05:08:36.595Z,70.50
2017-10-05T05:11:04.367Z,69.40
2017-10-05T05:13:32.732Z,68.80
2017-10-05T05:16:01.168Z,69.10
2017-10-05T05:18:28.818Z,69.00
2017-10-05T05:20:56.554Z,67.10
2017-10-05T05:23:24.426Z,67.80
2017-10-05T05:25:52.502Z,67.10
2017-10-05T05:28:21.311Z,65.40
2017-10-05T05:30:50.431Z,63.20
2017-10-05T05:33:18.413Z,63.00
2017-10-05T05:35:46.574Z,63.90
2017-10-05T05:38:14.282Z,66.70
2017-10-05T05:40:41.941Z,66.20
2017-10-05T05:43:09.580Z,64.10
2017-10-05T05:45:37.183Z,64.10
2017-10-05T05:48:04.845Z,63.00
2017-10-05T05:50:32.441Z,64.20
2017-10-05T05:53:00.078Z,62.00
2017-10-05T05:55:28.838Z,60.60
2017-10-05T05:57:56.594Z,61.60
2017-10-05T06:00:24.361Z,60.20
2017-10-05T06:02:52.306Z,61.20
2017-10-05T06:05:20.019Z,60.80
2017-10-05T06:07:47.782Z,60.70
2017-10-05T06:10:15.509Z,60.30
2017-10-05T06:12:43.123Z,59.20
2017-10-05T06:15:10.691Z,59.60
2017-10-05T06:17:38.217Z,59.40
2017-10-05T06:20:06.547Z,58.80
2017-10-05T06:22:34.079Z,58.80
2017-10-05T06:25:01.640Z,59.00
2017-10-05T06:27:29.172Z,58.80
2017-10-05T06:29:57.131Z,57.70
2017-10-05T06:32:24.772Z,58.80
2017-10-05T06:34:52.400Z,58.40
2017-10-05T06:37:20.281Z,57.90
2017-10-05T06:39:48.741Z,58.00
2017-10-05T06:42:16.856Z,58.00
2017-10-05T06:44:44.444Z,57.00
2017-10-05T06:47:12.008Z,58.90
2017-10-05T06:49:39.535Z,56.50
2017-10-05T06:52:07.103Z,57.10
2017-10-05T06:54:34.619Z,56.60
2017-10-05T06:57:02.182Z,57.10
2017-10-05T06:59:29.720Z,56.60
2017-10-05T07:01:57.373Z,56.00
2017-10-05T07:04:24.995Z,55.50
2017-10-05T07:06:52.616Z,56.50
2017-10-05T07:09:20.522Z,55.80
2017-10-05T07:11:48.157Z,57.30
2017-10-05T07:14:15.912Z,56.90
2017-10-05T07:16:43.464Z,55.80
2017-10-05T07:19:11.079Z,55.80
2017-10-05T07:21:38.610Z,56.40
2017-10-05T07:24:06.176Z,55.90
2017-10-05T07:26:33.713Z,55.30
2017-10-05T07:29:01.273Z,55.20
2017-10-05T07:31:28.803Z,55.80
2017-10-05T07:33:56.415Z,56.40
2017-10-05T07:36:24.000Z,56.00
2017-10-05T07:38:51.605Z,56.40
2017-10-05T07:41:19.973Z,56.80
2017-10-05T07:43:48.446Z,56.20
2017-10-05T07:46:16.235Z,56.20
2017-10-05T07:48:43.799Z,55.00
2017-10-05T07:51:11.360Z,54.00
2017-10-05T07:53:38.883Z,54.00
2017-10-05T07:56:07.212Z,52.00
2017-10-05T07:58:34.746Z,52.00
2017-10-05T08:01:02.307Z,50.50
2017-10-05T08:03:29.837Z,49.10
2017-10-05T08:05:57.401Z,48.20
2017-10-05T08:08:24.986Z,48.00
2017-10-05T08:10:52.684Z,45.90
2017-10-05T08:13:20.241Z,46.40
2017-10-05T08:15:47.844Z,45.40
2017-10-05T08:18:15.387Z,45.60
2017-10-05T08:20:42.984Z,45.90
2017-10-05T08:23:10.511Z,44.90
2017-10-05T08:25:38.076Z,45.00
2017-10-05T08:28:05.599Z,43.80
2017-10-05T08:30:33.155Z,41.60
2017-10-05T08:33:00.783Z,41.60
2017-10-05T08:35:28.344Z,41.50
2017-10-05T08:37:55.896Z,40.30
2017-10-05T08:40:23.476Z,39.60
2017-10-05T08:42:51.047Z,40.30
2017-10-05T08:45:18.649Z,40.50
2017-10-05T08:47:46.364Z,39.60
2017-10-05T08:50:13.943Z,38.80
2017-10-05T08:52:41.471Z,39.00
2017-10-05T08:55:09.040Z,39.00
2017-10-05T08:57:36.565Z,39.10
2017-10-05T09:00:04.096Z,38.90
2017-10-05T09:02:31.659Z,38.40
2017-10-05T09:04:59.202Z,36.30
2017-10-05T09:07:26.767Z,37.80
2017-10-05T09:09:54.317Z,38.10
2017-10-05T09:12:21.908Z,37.70
2017-10-05T09:14:49.480Z,37.90
2017-10-05T09:17:17.111Z,38.50
2017-10-05T09:19:44.646Z,38.10
2017-10-05T09:22:12.203Z,37.20
2017-10-05T09:24:39.729Z,35.50
2017-10-05T09:27:07.296Z,36.50
2017-10-05T09:29:34.823Z,36.50
2017-10-05T09:32:02.413Z,36.30
2017-10-05T09:34:29.945Z,35.80
2017-10-05T09:36:57.507Z,35.50
2017-10-05T09:39:25.091Z,34.60
2017-10-05T09:41:52.757Z,35.40
2017-10-05T09:44:20.435Z,34.70
2017-10-05T09:46:53.255Z,35.70
2017-10-05T09:49:21.383Z,36.10
2017-10-05T09:51:49.235Z,36.40
2017-10-05T09:54:17.263Z,37.10
2017-10-05T09:56:47.804Z,37.90
2017-10-05T09:59:16.345Z,37.30
2017-10-05T10:01:43.953Z,38.50
2017-10-05T10:04:15.261Z,39.70
2017-10-05T10:06:42.880Z,39.60
2017-10-05T10:09:11.942Z,38.90
2017-10-05T10:11:40.040Z,38.10
2017-10-05T10:14:08.428Z,38.70
2017-10-05T10:16:38.277Z,38.90
2017-10-05T10:19:05.881Z,38.80
2017-10-05T10:21:33.505Z,39.50
2017-10-05T10:24:01.121Z,39.20
2017-10-05T10:26:34.020Z,38.30
2017-10-05T10:29:02.081Z,38.60
2017-10-05T10:31:29.750Z,39.30
2017-10-05T10:33:58.364Z,38.60
2017-10-05T10:36:28.615Z,37.40
2017-10-05T10:38:59.703Z,37.30
2017-10-05T10:41:27.546Z,37.30
2017-10-05T10:43:55.626Z,37.50
2017-10-05T10:46:24.026Z,36.10
2017-10-05T10:48:51.789Z,36.00
2017-10-05T10:51:19.538Z,36.60
2017-10-05T10:53:48.373Z,36.70
2017-10-05T10:56:16.647Z,36.90
2017-10-05T10:58:44.551Z,35.40
2017-10-05T11:01:12.537Z,35.20
2017-10-05T11:03:42.197Z,34.10
2017-10-05T11:06:10.624Z,34.20
2017-10-05T11:08:39.287Z,33.80
2017-10-05T11:11:06.847Z,34.30
2017-10-05T11:13:35.179Z,33.80
2017-10-05T11:16:02.708Z,33.80
2017-10-05T11:18:30.277Z,33.90
2017-10-05T11:20:58.581Z,34.10
2017-10-05T11:23:26.151Z,34.00
2017-10-05T11:25:53.703Z,33.30
2017-10-05T11:28:22.920Z,33.50
2017-10-05T11:30:51.260Z,34.30
2017-10-05T11:33:18.836Z,34.40
2017-10-05T11:35:47.159Z,33.40
2017-10-05T11:38:14.759Z,33.40
2017-10-05T11:40:42.308Z,34.80
2017-10-05T11:43:09.850Z,35.30
2017-10-05T11:45:37.420Z,34.60
2017-10-05T11:48:04.943Z,34.40
2017-10-05T11:50:32.515Z,34.50
2017-10-05T11:53:00.064Z,34.50
2017-10-05T11:55:27.622Z,33.80
2017-10-05T11:57:55.149Z,33.30
2017-10-05T12:00:22.730Z,33.90
2017-10-05T12:02:50.280Z,33.20
2017-10-05T12:05:17.907Z,33.90
2017-10-05T12:07:45.446Z,33.10
2017-10-05T12:10:13.003Z,33.50
2017-10-05T12:12:40.573Z,33.40
2017-10-05T12:15:08.868Z,33.70
2017-10-05T12:17:36.427Z,33.70
2017-10-05T12:20:03.952Z,34.00
2017-10-05T12:22:31.525Z,33.00
2017-10-05T12:24:59.046Z,33.60
2017-10-05T12:27:26.611Z,33.90
2017-10-05T12:29:54.163Z,34.10
2017-10-05T12:32:21.765Z,33.60
2017-10-05T12:34:49.422Z,34.20
2017-10-05T12:37:17.291Z,35.30
2017-10-05T12:39:44.844Z,35.50
2017-10-05T12:42:12.433Z,35.80
2017-10-05T12:44:40.752Z,35.40
2017-10-05T12:47:08.340Z,35.40
2017-10-05T12:49:35.862Z,35.30
2017-10-05T12:52:03.435Z,36.00
2017-10-05T12:54:31.727Z,36.60
2017-10-05T12:56:59.252Z,36.60
2017-10-05T12:59:27.583Z,36.80
2017-10-05T13:01:55.208Z,36.80
2017-10-05T13:04:22.749Z,37.00
2017-10-05T13:06:51.057Z,36.20
2017-10-05T13:09:18.692Z,36.20
2017-10-05T13:11:46.283Z,36.10
2017-10-05T13:14:13.959Z,36.20
2017-10-05T13:16:41.506Z,34.30
2017-10-05T13:19:09.088Z,34.30
2017-10-05T13:21:36.615Z,34.20
2017-10-05T13:24:04.207Z,33.80
2017-10-05T13:26:31.735Z,34.70
2017-10-05T13:29:00.037Z,34.70
2017-10-05T13:31:27.604Z,34.70
2017-10-05T13:33:55.906Z,34.20
2017-10-05T13:36:24.270Z,34.20
2017-10-05T13:38:52.031Z,34.20
2017-10-05T13:41:19.970Z,34.30
2017-10-05T13:43:48.041Z,34.60
2017-10-05T13:46:15.673Z,34.40
2017-10-05T13:48:43.279Z,34.00
2017-10-05T13:51:10.860Z,34.80
2017-10-05T13:53:39.162Z,33.90
2017-10-05T13:56:06.724Z,33.90
2017-10-05T13:58:34.246Z,34.40
2017-10-05T14:01:01.822Z,33.50
2017-10-05T14:03:29.347Z,34.10
2017-10-05T14:05:56.912Z,33.90
2017-10-05T14:08:24.509Z,33.90
2017-10-05T14:10:52.071Z,34.00
2017-10-05T14:13:19.672Z,33.90
2017-10-05T14:15:47.234Z,34.00
2017-10-05T14:18:14.834Z,34.60
2017-10-05T14:20:42.384Z,35.00
2017-10-05T14:23:09.959Z,35.10
2017-10-05T14:25:37.482Z,34.90
2017-10-05T14:28:05.040Z,35.30
2017-10-05T14:30:32.627Z,34.70
2017-10-05T14:33:00.206Z,35.00
2017-10-05T14:35:27.737Z,34.00
2017-10-05T14:37:55.316Z,34.60
2017-10-05T14:40:22.941Z,35.70
2017-10-05T14:42:50.519Z,36.00
2017-10-05T14:45:18.129Z,35.30
2017-10-05T14:47:45.695Z,34.80
2017-10-05T14:50:13.296Z,34.50
2017-10-05T14:52:40.827Z,34.60
2017-10-05T14:55:09.156Z,40.20
2017-10-05T14:57:36.684Z,40.20
2017-10-05T15:00:04.262Z,43.40
2017-10-05T15:02:32.560Z,39.30
2017-10-05T15:05:00.125Z,39.30
2017-10-05T15:07:27.655Z,36.90
2017-10-05T15:09:55.221Z,36.20
2017-10-05T15:12:22.798Z,36.40
2017-10-05T15:14:50.415Z,37.10
2017-10-05T15:17:18.044Z,38.40
2017-10-05T15:19:45.687Z,39.50
2017-10-05T15:22:13.228Z,42.00
2017-10-05T15:24:40.790Z,48.40
2017-10-05T15:27:08.323Z,48.00
2017-10-05T15:29:35.895Z,49.10
2017-10-05T15:32:04.195Z,46.70
2017-10-05T15:34:32.522Z,44.00
2017-10-05T15:37:00.060Z,44.20
2017-10-05T15:39:27.630Z,51.90
2017-10-05T15:41:55.216Z,51.90
2017-10-05T15:44:22.775Z,45.20
2017-10-05T15:46:50.421Z,44.10
2017-10-05T15:49:17.997Z,50.50
2017-10-05T15:51:45.569Z,47.70
2017-10-05T15:54:13.920Z,51.10
2017-10-05T15:56:41.511Z,51.00
2017-10-05T15:59:09.051Z,50.00
2017-10-05T16:01:36.611Z,51.70
2017-10-05T16:04:04.138Z,50.10
2017-10-05T16:06:31.703Z,52.30
2017-10-05T16:08:59.240Z,53.20
2017-10-05T16:11:26.803Z,54.20
2017-10-05T16:13:54.348Z,51.70
2017-10-05T16:16:21.941Z,51.60
2017-10-05T16:18:50.300Z,53.00
2017-10-05T16:21:18.699Z,52.10
2017-10-05T16:23:46.292Z,52.10
2017-10-05T16:26:13.846Z,51.00
2017-10-05T16:28:41.456Z,49.40
2017-10-05T16:31:09.111Z,52.20
2017-10-05T16:33:36.650Z,50.90
2017-10-05T16:36:04.187Z,50.40
2017-10-05T16:38:31.787Z,52.00
2017-10-05T16:41:00.079Z,52.50
2017-10-05T16:43:27.632Z,52.30
2017-10-05T16:45:55.201Z,50.90
2017-10-05T16:48:22.873Z,51.50
2017-10-05T16:50:50.562Z,53.70
2017-10-05T16:53:19.214Z,51.60
2017-10-05T16:55:47.572Z,54.30
2017-10-05T16:58:15.176Z,54.20
2017-10-05T17:00:42.747Z,51.10
2017-10-05T17:03:10.324Z,53.30
2017-10-05T17:05:38.620Z,53.10
2017-10-05T17:08:06.191Z,53.10
2017-10-05T17:10:33.747Z,54.20
2017-10-05T17:13:01.315Z,53.30
2017-10-05T17:15:29.607Z,54.80
2017-10-05T17:17:57.187Z,54.80
2017-10-05T17:20:24.734Z,57.80
2017-10-05T17:22:52.370Z,62.30
2017-10-05T17:25:20.014Z,66.30
2017-10-05T17:27:47.589Z,73.00
2017-10-05T17:30:15.205Z,75.30
2017-10-05T17:32:43.611Z,82.10
2017-10-05T17:35:11.930Z,86.70
2017-10-05T17:37:39.505Z,86.70
2017-10-05T17:40:07.035Z,84.60
2017-10-05T17:42:34.603Z,87.30
2017-10-05T17:45:02.132Z,89.70
2017-10-05T17:47:29.704Z,90.10
2017-10-05T17:49:58.016Z,89.10
2017-10-05T17:52:25.587Z,89.00
2017-10-05T17:54:53.120Z,90.00
2017-10-05T17:57:20.719Z,90.50
2017-10-05T17:59:48.263Z,90.70
2017-10-05T18:02:15.844Z,91.30
2017-10-05T18:04:43.372Z,91.40
2017-10-05T18:07:10.905Z,91.70
2017-10-05T18:09:38.467Z,92.00
2017-10-05T18:12:06.026Z,91.70
2017-10-05T18:14:33.588Z,92.20
2017-10-05T18:17:01.117Z,92.60
2017-10-05T18:19:28.682Z,92.50
2017-10-05T18:21:56.216Z,92.60
2017-10-05T18:24:24.551Z,92.50
2017-10-05T18:26:52.080Z,92.40
2017-10-05T18:29:19.662Z,93.00
2017-10-05T18:31:47.193Z,93.10
2017-10-05T18:34:14.752Z,93.10
2017-10-05T18:36:42.388Z,93.00
2017-10-05T18:39:10.002Z,93.10
2017-10-05T18:41:37.543Z,92.90
2017-10-05T18:44:05.974Z,93.10
2017-10-05T18:46:33.647Z,93.10
2017-10-05T18:49:01.965Z,92.30
2017-10-05T18:51:29.531Z,92.30
2017-10-05T18:53:57.059Z,92.50
2017-10-05T18:56:24.711Z,92.80
2017-10-05T18:58:52.276Z,93.10
2017-10-05T19:01:19.859Z,93.00
2017-10-05T19:03:47.543Z,93.20
2017-10-05T19:06:15.933Z,93.40
2017-10-05T19:08:43.491Z,93.40
2017-10-05T19:11:11.071Z,93.70
2017-10-05T19:13:38.704Z,93.60
2017-10-05T19:16:06.283Z,93.70
2017-10-05T19:18:33.866Z,93.30
2017-10-05T19:21:01.438Z,93.50
2017-10-05T19:23:29.744Z,93.70
2017-10-05T19:25:57.340Z,93.70
2017-10-05T19:28:25.680Z,93.40
2017-10-05T19:30:53.268Z,93.40
2017-10-05T19:33:20.831Z,93.10
2017-10-05T19:35:48.444Z,93.20
2017-10-05T19:38:16.792Z,93.40
2017-10-05T19:40:44.406Z,93.40
2017-10-05T19:43:12.066Z,93.30
2017-10-05T19:45:39.608Z,93.40
2017-10-05T19:48:07.206Z,93.20
2017-10-05T19:50:34.819Z,93.70
2017-10-05T19:53:04.993Z,93.70
2017-10-05T19:55:32.613Z,93.90
2017-10-05T19:58:00.276Z,94.00
2017-10-05T20:00:27.839Z,94.20
2017-10-05T20:02:55.528Z,93.50
2017-10-05T20:05:23.856Z,91.80
2017-10-05T20:07:51.510Z,91.80
2017-10-05T20:10:19.132Z,92.70
2017-10-05T20:12:46.817Z,92.90
2017-10-05T20:18:38.576Z,93.00
2017-10-05T20:21:11.662Z,93.00
2017-10-05T20:23:44.892Z,93.00
2017-10-05T20:26:17.129Z,91.40
2017-10-05T20:31:52.972Z,91.20
2017-10-05T20:34:20.786Z,92.60
2017-10-05T20:36:48.452Z,93.30
2017-10-05T20:39:16.174Z,93.70
2017-10-05T20:41:46.378Z,93.90
2017-10-05T20:44:14.074Z,93.00
2017-10-05T20:46:43.442Z,93.70
2017-10-05T20:49:11.126Z,93.10
2017-10-05T20:51:39.557Z,93.50
2017-10-05T20:54:08.678Z,93.50
2017-10-05T20:56:37.139Z,93.80
2017-10-05T20:59:05.573Z,92.80
2017-10-05T21:01:33.235Z,92.80
2017-10-05T21:04:00.948Z,92.40
2017-10-05T21:06:28.540Z,92.60
2017-10-05T21:08:56.946Z,92.70
2017-10-05T21:11:25.360Z,92.70
2017-10-05T21:13:52.913Z,92.60
2017-10-05T21:16:20.497Z,93.10
2017-10-05T21:18:48.823Z,92.50
2017-10-05T21:21:16.449Z,92.40
2017-10-05T21:23:43.987Z,92.60
2017-10-05T21:26:11.557Z,92.60
2017-10-05T21:28:39.092Z,92.40
2017-10-05T21:31:06.671Z,92.50
2017-10-05T21:33:34.984Z,93.00
2017-10-05T21:36:02.564Z,93.00
2017-10-05T21:38:31.049Z,92.90
2017-10-05T21:40:59.369Z,92.50
2017-10-05T21:43:26.936Z,92.50
2017-10-05T21:45:54.481Z,93.00
2017-10-05T21:48:22.052Z,92.90
2017-10-05T21:50:50.594Z,93.00
2017-10-05T21:53:18.203Z,92.80
2017-10-05T21:55:45.789Z,92.90
2017-10-05T21:58:14.304Z,92.70
2017-10-05T22:00:41.892Z,92.90
2017-10-05T22:03:09.565Z,92.80
2017-10-05T22:05:37.413Z,92.50
2017-10-05T22:08:05.025Z,92.40
2017-10-05T22:10:32.648Z,92.50
2017-10-05T22:13:00.311Z,92.30
2017-10-05T22:15:27.905Z,92.40
2017-10-05T22:17:57.305Z,92.40
2017-10-05T22:20:24.854Z,92.30
2017-10-05T22:22:52.501Z,92.90
2017-10-05T22:25:20.380Z,93.10
2017-10-05T22:27:49.321Z,93.40
2017-10-05T22:30:17.657Z,93.80
2017-10-05T22:32:45.294Z,93.40
2017-10-05T22:35:14.074Z,93.20
2017-10-05T22:37:42.600Z,92.70
2017-10-05T22:40:11.066Z,92.70
2017-10-05T22:42:38.869Z,92.70
2017-10-05T22:45:07.328Z,93.30
2017-10-05T22:47:35.815Z,93.40
2017-10-05T22:50:03.633Z,93.40
2017-10-05T22:52:31.265Z,93.70
2017-10-05T22:54:59.406Z,93.80
2017-10-05T22:57:27.004Z,93.90
2017-10-05T22:59:57.328Z,93.70
2017-10-05T23:02:24.970Z,93.70
2017-10-05T23:04:52.684Z,93.70
2017-10-05T23:07:20.333Z,93.50
2017-10-05T23:09:48.248Z,93.60
2017-10-05T23:12:15.897Z,93.90
2017-10-05T23:14:43.553Z,93.90
2017-10-05T23:17:13.023Z,94.00
2017-10-05T23:19:40.647Z,93.90
2017-10-05T23:22:11.378Z,93.60
2017-10-05T23:24:39.001Z,93.60
2017-10-05T23:27:06.622Z,93.50
2017-10-05T23:29:34.281Z,93.60
2017-10-05T23:32:01.888Z,93.60
2017-10-05T23:34:29.551Z,93.80
2017-10-05T23:36:57.141Z,93.80
2017-10-05T23:39:25.558Z,94.00
2017-10-05T23:41:53.202Z,94.00
2017-10-05T23:44:20.839Z,94.00
2017-10-05T23:46:48.524Z,93.70
2017-10-05T23:49:16.134Z,93.80
2017-10-05T23:51:43.787Z,93.90
2017-10-05T23:54:11.732Z,94.10
2017-10-05T23:56:39.438Z,93.80
2017-10-05T23:59:07.078Z,93.60
